Time;durP1;ratioP1;P1;durP2;ratioP2;P2;SDS_P1;SDS_P2;PMS_P1;PMS_P2;Temp;Humidity;BMP_temperature;BMP_pressure;BME280_temperature;BME280_humidity;BME280_pressure;Samples;Min_cycle;Max_cycle;Signal;HPM_P1;HPM_P2
2022/11/30 00:00:18;;;;;;;31.10;22.38;;;8.10;99.90;;;;;;4972608;28;20030;-50
2022/11/30 00:02:44;;;;;;;31.83;23.80;;;8.10;99.90;;;;;;4972146;28;20109;-52
2022/11/30 00:05:10;;;;;;;27.55;21.02;;;8.10;99.90;;;;;;4972243;28;20054;-51
2022/11/30 00:07:36;;;;;;;28.65;21.05;;;8.10;99.90;;;;;;4972645;28;20102;-53
2022/11/30 00:10:03;;;;;;;29.83;21.02;;;8.10;99.90;;;;;;4972703;28;20034;-48
2022/11/30 00:12:28;;;;;;;26.15;20.73;;;8.20;99.90;;;;;;4971719;28;20042;-52
2022/11/30 00:14:54;;;;;;;25.33;19.45;;;8.20;99.90;;;;;;4972646;28;20031;-52
2022/11/30 00:17:20;;;;;;;27.08;19.95;;;8.20;99.90;;;;;;4972450;28;20023;-51
2022/11/30 00:19:45;;;;;;;24.33;17.10;;;8.20;99.90;;;;;;4972671;28;20030;-50
2022/11/30 00:22:11;;;;;;;25.52;18.23;;;8.20;99.90;;;;;;4972270;28;20035;-53
2022/11/30 00:24:36;;;;;;;25.27;17.95;;;8.20;99.90;;;;;;4972812;28;20035;-53
2022/11/30 00:27:02;;;;;;;23.65;17.98;;;8.20;99.90;;;;;;4972583;28;20034;-50
2022/11/30 00:29:28;;;;;;;27.02;18.48;;;8.20;99.90;;;;;;4972861;28;20035;-51
2022/11/30 00:31:53;;;;;;;26.67;18.35;;;8.20;99.90;;;;;;4971964;28;20026;-50
2022/11/30 00:34:19;;;;;;;30.02;18.50;;;8.20;99.90;;;;;;4972386;28;20117;-53
2022/11/30 00:36:45;;;;;;;29.27;18.27;;;8.20;99.90;;;;;;4972555;28;20054;-55
2022/11/30 00:39:10;;;;;;;32.08;20.73;;;8.20;99.90;;;;;;4971812;28;20023;-50
2022/11/30 00:41:36;;;;;;;32.63;19.67;;;8.10;99.90;;;;;;4972367;28;20110;-49
2022/11/30 00:44:01;;;;;;;30.80;18.83;;;8.10;99.90;;;;;;4971893;28;20031;-51
2022/11/30 00:46:27;;;;;;;30.05;19.17;;;8.20;99.90;;;;;;4970863;28;20035;-51
2022/11/30 00:48:52;;;;;;;36.10;20.63;;;8.20;99.90;;;;;;4972585;28;20518;-49
2022/11/30 00:51:21;;;;;;;28.38;18.55;;;8.20;99.90;;;;;;4973320;28;20034;-48
2022/11/30 00:53:47;;;;;;;35.58;20.08;;;8.10;99.90;;;;;;4972303;28;20051;-49
2022/11/30 00:56:12;;;;;;;35.50;20.00;;;8.10;99.90;;;;;;4972816;28;20027;-52
2022/11/30 00:58:39;;;;;;;67.55;41.25;;;8.10;99.90;;;;;;4973284;28;20066;-53
2022/11/30 01:01:05;;;;;;;69.15;38.40;;;8.10;99.90;;;;;;4973050;28;20078;-49
2022/11/30 01:03:31;;;;;;;113.80;61.70;;;8.10;99.90;;;;;;4972168;28;20035;-53
2022/11/30 01:06:04;;;;;;;52.42;29.92;;;8.10;99.90;;;;;;4972757;28;20560;-49
2022/11/30 01:08:30;;;;;;;46.42;23.90;;;8.10;99.90;;;;;;4976062;28;20054;-51
2022/11/30 01:10:56;;;;;;;35.35;22.77;;;8.10;99.90;;;;;;4976205;28;20031;-50
2022/11/30 01:13:23;;;;;;;36.80;22.30;;;8.10;99.90;;;;;;4975221;28;20038;-51
2022/11/30 01:15:49;;;;;;;38.85;21.45;;;8.10;99.90;;;;;;4976143;28;20018;-50
2022/11/30 01:18:14;;;;;;;36.40;20.33;;;8.00;99.90;;;;;;4975782;28;20025;-47
2022/11/30 01:20:41;;;;;;;42.95;20.92;;;8.00;99.90;;;;;;4975931;28;20149;-49
2022/11/30 01:23:07;;;;;;;37.70;22.23;;;7.90;99.90;;;;;;4974981;28;20035;-51
2022/11/30 01:25:32;;;;;;;44.33;23.95;;;7.90;99.90;;;;;;4975695;28;20487;-55
2022/11/30 01:27:58;;;;;;;44.58;22.95;;;7.90;99.90;;;;;;4975549;28;20030;-51
2022/11/30 01:30:23;;;;;;;44.92;22.60;;;7.90;99.90;;;;;;4975544;28;20031;-50
2022/11/30 01:32:49;;;;;;;46.75;23.63;;;7.90;99.90;;;;;;4974640;28;20023;-49
2022/11/30 01:35:14;;;;;;;44.53;22.92;;;7.90;99.90;;;;;;4975232;28;20065;-49
2022/11/30 01:37:40;;;;;;;44.50;23.40;;;7.90;99.90;;;;;;4975625;28;20026;-51
2022/11/30 01:40:06;;;;;;;37.90;21.23;;;8.00;99.90;;;;;;4975646;28;20033;-48
2022/11/30 01:42:32;;;;;;;42.65;22.45;;;8.00;99.90;;;;;;4973117;28;20030;-52
2022/11/30 01:44:59;;;;;;;40.35;22.17;;;8.00;99.90;;;;;;4974585;28;20101;-55
2022/11/30 01:47:36;;;;;;;39.97;22.27;;;8.00;99.90;;;;;;4975059;28;20408;-50
2022/11/30 01:50:22;;;;;;;37.55;20.67;;;8.00;99.90;;;;;;4975458;28;20031;-50
2022/11/30 01:52:52;;;;;;;39.13;22.30;;;8.10;99.90;;;;;;4974343;28;20039;-51
2022/11/30 01:55:26;;;;;;;38.67;20.08;;;8.10;99.90;;;;;;4973847;28;20061;-49
2022/11/30 01:57:58;;;;;;;32.03;20.15;;;8.10;99.90;;;;;;4975265;28;20031;-51
2022/11/30 02:00:24;;;;;;;41.08;20.98;;;8.10;99.90;;;;;;4975580;28;20022;-49
2022/11/30 02:03:04;;;;;;;47.03;22.88;;;8.10;99.90;;;;;;4974372;28;20495;-49
2022/11/30 02:05:33;;;;;;;36.20;21.25;;;8.10;99.90;;;;;;4975319;28;20042;-51
2022/11/30 02:08:00;;;;;;;40.75;21.67;;;8.20;99.90;;;;;;4974719;28;20026;-49
2022/11/30 02:10:31;;;;;;;36.88;20.67;;;8.20;99.90;;;;;;4975178;28;20168;-51
2022/11/30 02:13:21;;;;;;;37.88;21.95;;;8.20;99.90;;;;;;4974132;28;20027;-50
2022/11/30 02:16:11;;;;;;;42.33;23.48;;;8.20;99.90;;;;;;4974883;28;20117;-51
2022/11/30 02:19:06;;;;;;;38.85;22.90;;;8.20;99.90;;;;;;4973719;28;20037;-53
2022/11/30 02:22:06;;;;;;;40.63;23.17;;;8.20;99.90;;;;;;4974717;28;20122;-52
2022/11/30 02:25:08;;;;;;;53.30;24.35;;;8.20;99.90;;;;;;4974564;28;20058;-49
2022/11/30 02:28:02;;;;;;;51.65;24.23;;;8.20;99.90;;;;;;4974536;28;20026;-49
2022/11/30 02:30:31;;;;;;;35.05;21.85;;;8.20;99.90;;;;;;4974626;28;20102;-49
2022/11/30 02:33:03;;;;;;;34.22;21.10;;;8.20;99.90;;;;;;4973621;28;20088;-52
2022/11/30 02:35:32;;;;;;;41.08;21.60;;;8.20;99.90;;;;;;4974541;28;20087;-53
2022/11/30 02:38:00;;;;;;;37.85;20.63;;;8.20;99.90;;;;;;4973231;28;20037;-50
2022/11/30 02:40:25;;;;;;;40.45;22.40;;;8.30;99.90;;;;;;4974431;28;20062;-52
2022/11/30 02:42:53;;;;;;;37.70;21.42;;;8.20;99.90;;;;;;4972182;28;20126;-49
2022/11/30 02:45:28;;;;;;;40.58;21.30;;;8.20;99.90;;;;;;4974200;28;20019;-49
2022/11/30 02:48:11;;;;;;;38.83;21.33;;;8.20;99.90;;;;;;4974082;28;20027;-50
2022/11/30 02:50:55;;;;;;;38.75;21.02;;;8.20;99.90;;;;;;4974275;28;20038;-49
2022/11/30 02:53:21;;;;;;;38.88;21.42;;;8.20;99.90;;;;;;4973551;28;20085;-49
2022/11/30 02:55:47;;;;;;;38.53;20.13;;;8.10;99.90;;;;;;4974070;28;20065;-51
2022/11/30 02:58:14;;;;;;;39.08;21.45;;;8.10;99.90;;;;;;4973671;28;20479;-52
2022/11/30 03:00:40;;;;;;;36.28;21.00;;;8.10;99.90;;;;;;4974379;28;20074;-50
2022/11/30 03:03:05;;;;;;;39.10;19.90;;;8.10;99.90;;;;;;4973235;28;20051;-53
2022/11/30 03:05:31;;;;;;;37.53;20.27;;;8.10;99.90;;;;;;4974113;28;20561;-53
2022/11/30 03:07:57;;;;;;;33.58;19.92;;;8.10;99.90;;;;;;4973845;28;20112;-49
2022/11/30 03:10:22;;;;;;;38.72;21.40;;;8.10;99.90;;;;;;4973884;28;20035;-49
2022/11/30 03:12:48;;;;;;;43.97;22.00;;;8.10;99.90;;;;;;4973061;28;20089;-51
2022/11/30 03:15:13;;;;;;;47.05;21.92;;;8.10;99.90;;;;;;4973584;28;20023;-51
2022/11/30 03:17:39;;;;;;;38.55;21.55;;;8.00;99.90;;;;;;4973459;28;20550;-49
2022/11/30 03:20:05;;;;;;;41.17;22.30;;;8.00;99.90;;;;;;4973625;28;20352;-50
2022/11/30 03:22:31;;;;;;;46.97;22.90;;;8.00;99.90;;;;;;4972706;28;20027;-49
2022/11/30 03:24:56;;;;;;;34.17;20.52;;;8.00;99.90;;;;;;4973648;28;20041;-50
2022/11/30 03:27:22;;;;;;;39.33;20.83;;;8.00;99.90;;;;;;4973627;28;20026;-51
2022/11/30 03:29:48;;;;;;;42.85;20.35;;;8.00;99.90;;;;;;4973332;28;20026;-55
2022/11/30 03:32:13;;;;;;;40.95;22.13;;;8.00;99.90;;;;;;4972730;28;20196;-53
2022/11/30 03:34:39;;;;;;;40.53;21.30;;;8.00;99.90;;;;;;4973450;28;20394;-52
2022/11/30 03:37:04;;;;;;;44.75;21.27;;;8.00;99.90;;;;;;4973515;28;20391;-55
2022/11/30 03:39:30;;;;;;;37.58;19.90;;;8.00;99.90;;;;;;4973305;28;20109;-50
2022/11/30 03:41:55;;;;;;;41.85;22.08;;;8.00;99.90;;;;;;4972552;28;20031;-52
2022/11/30 03:44:21;;;;;;;42.55;22.00;;;8.00;99.90;;;;;;4973204;28;20053;-51
2022/11/30 03:46:47;;;;;;;37.97;20.42;;;8.00;99.90;;;;;;4971591;28;20379;-48
2022/11/30 03:49:12;;;;;;;48.33;21.08;;;8.00;99.90;;;;;;4973586;28;20027;-49
2022/11/30 03:51:38;;;;;;;38.92;20.77;;;8.00;99.90;;;;;;4972994;28;20042;-51
2022/11/30 03:54:03;;;;;;;43.25;21.92;;;8.00;99.90;;;;;;4972454;28;20027;-51
2022/11/30 03:56:29;;;;;;;37.20;20.73;;;8.00;99.90;;;;;;4973177;28;20023;-50
2022/11/30 03:58:54;;;;;;;36.33;19.67;;;8.00;99.90;;;;;;4973123;28;20029;-49
2022/11/30 04:01:23;;;;;;;42.95;21.13;;;8.10;99.90;;;;;;4972935;28;20043;-49
2022/11/30 04:03:50;;;;;;;46.63;22.70;;;8.00;99.90;;;;;;4971847;28;20490;-47
2022/11/30 04:06:17;;;;;;;43.42;21.40;;;8.00;99.90;;;;;;4972659;28;20035;-52
2022/11/30 04:08:43;;;;;;;45.17;21.63;;;8.00;99.90;;;;;;4972726;28;20030;-53
2022/11/30 04:11:10;;;;;;;37.55;20.00;;;8.00;99.90;;;;;;4972612;28;20070;-49
2022/11/30 04:13:37;;;;;;;37.30;20.75;;;8.00;99.90;;;;;;4971842;28;20027;-51
2022/11/30 04:16:03;;;;;;;37.72;20.73;;;8.00;99.90;;;;;;4972891;28;20069;-50
2022/11/30 04:18:30;;;;;;;41.05;20.95;;;8.00;99.90;;;;;;4972413;28;20035;-50
2022/11/30 04:20:56;;;;;;;43.58;22.67;;;8.00;99.90;;;;;;4972719;28;20027;-51
2022/11/30 04:23:23;;;;;;;42.05;22.13;;;8.00;99.90;;;;;;4971850;28;20023;-50
2022/11/30 04:25:50;;;;;;;37.60;22.50;;;7.90;99.90;;;;;;4972500;28;20026;-49
2022/11/30 04:28:17;;;;;;;41.80;23.13;;;7.90;99.90;;;;;;4972489;28;20102;-51
2022/11/30 04:30:43;;;;;;;41.58;23.05;;;7.80;99.90;;;;;;4972479;28;20023;-52
2022/11/30 04:33:09;;;;;;;38.70;20.75;;;7.80;99.90;;;;;;4971591;28;20022;-49
2022/11/30 04:35:40;;;;;;;46.35;22.33;;;7.80;99.90;;;;;;4972468;28;20297;-49
2022/11/30 04:38:06;;;;;;;41.78;21.90;;;7.80;99.90;;;;;;4972414;28;20074;-49
2022/11/30 04:40:31;;;;;;;41.22;21.73;;;7.80;99.90;;;;;;4972135;28;20027;-52
2022/11/30 04:42:57;;;;;;;33.90;19.60;;;7.80;99.90;;;;;;4974358;28;20097;-51
2022/11/30 04:45:22;;;;;;;38.65;21.10;;;7.80;99.90;;;;;;4975134;28;20046;-50
2022/11/30 04:47:48;;;;;;;37.72;20.20;;;7.90;99.90;;;;;;4976097;28;20109;-49
2022/11/30 04:50:13;;;;;;;35.05;18.98;;;7.90;99.90;;;;;;4976230;28;20110;-49
2022/11/30 04:52:39;;;;;;;33.42;19.92;;;7.90;99.90;;;;;;4975347;28;20525;-52
2022/11/30 04:55:05;;;;;;;38.10;20.80;;;7.90;99.90;;;;;;4975938;28;20039;-50
2022/11/30 04:57:30;;;;;;;40.53;20.65;;;7.90;99.90;;;;;;4975804;28;20037;-49
2022/11/30 04:59:56;;;;;;;40.65;21.05;;;8.00;99.90;;;;;;4975649;28;20390;-52
2022/11/30 05:02:22;;;;;;;38.28;19.30;;;8.00;99.90;;;;;;4975110;28;20034;-52
2022/11/30 05:04:47;;;;;;;33.30;20.98;;;8.00;99.90;;;;;;4975595;28;20063;-50
2022/11/30 05:07:13;;;;;;;42.22;22.52;;;8.10;99.90;;;;;;4975764;28;20071;-49
2022/11/30 05:09:38;;;;;;;36.95;20.13;;;8.10;99.90;;;;;;4974331;28;20061;-54
2022/11/30 05:12:04;;;;;;;42.38;19.77;;;8.10;99.90;;;;;;4974864;28;20081;-49
2022/11/30 05:14:30;;;;;;;37.55;20.13;;;8.10;99.90;;;;;;4975788;28;20049;-49
2022/11/30 05:16:55;;;;;;;40.13;20.08;;;8.10;99.90;;;;;;4975996;28;20026;-51
2022/11/30 05:19:21;;;;;;;34.08;19.63;;;8.10;99.90;;;;;;4975922;28;20019;-49
2022/11/30 05:21:46;;;;;;;38.78;19.85;;;8.10;99.90;;;;;;4975679;28;20074;-53
2022/11/30 05:24:12;;;;;;;37.05;20.70;;;8.20;99.90;;;;;;4975511;28;20462;-50
2022/11/30 05:26:37;;;;;;;37.22;20.50;;;8.10;99.90;;;;;;4976270;28;20109;-54
2022/11/30 05:29:04;;;;;;;37.88;20.77;;;8.20;99.90;;;;;;4975762;28;20027;-48
2022/11/30 05:31:30;;;;;;;41.30;20.00;;;8.10;99.90;;;;;;4975318;28;20094;-53
2022/11/30 05:33:56;;;;;;;39.63;19.92;;;8.10;99.90;;;;;;4974761;28;20027;-51
2022/11/30 05:36:22;;;;;;;39.47;20.48;;;8.20;99.90;;;;;;4975747;28;20101;-50
2022/11/30 05:38:47;;;;;;;36.92;19.88;;;8.20;99.90;;;;;;4975537;28;20046;-48
2022/11/30 05:41:13;;;;;;;35.35;19.58;;;8.20;99.90;;;;;;4975237;28;20110;-51
2022/11/30 05:43:39;;;;;;;34.80;19.83;;;8.20;99.90;;;;;;4974886;28;20034;-49
2022/11/30 05:46:07;;;;;;;34.17;19.67;;;8.20;99.90;;;;;;4975364;28;20035;-55
2022/11/30 05:48:33;;;;;;;40.95;20.00;;;8.20;99.90;;;;;;4974967;28;20445;-51
2022/11/30 05:51:17;;;;;;;35.17;19.80;;;8.20;99.90;;;;;;4974973;28;20507;-48
2022/11/30 05:53:44;;;;;;;34.92;19.63;;;8.20;99.90;;;;;;4974111;28;20034;-50
2022/11/30 05:56:15;;;;;;;35.67;18.83;;;8.20;99.90;;;;;;4974865;28;20023;-51
2022/11/30 05:58:41;;;;;;;33.85;20.35;;;8.20;99.90;;;;;;4974916;28;20048;-52
2022/11/30 06:01:06;;;;;;;40.83;20.10;;;8.30;99.90;;;;;;4974501;28;20508;-53
2022/11/30 06:03:34;;;;;;;35.05;19.27;;;8.20;99.90;;;;;;4974216;28;20340;-52
2022/11/30 06:06:00;;;;;;;43.08;20.42;;;8.20;99.90;;;;;;4974827;28;20030;-55
2022/11/30 06:08:26;;;;;;;36.88;19.23;;;8.20;99.90;;;;;;4974695;28;20022;-52
2022/11/30 06:10:52;;;;;;;36.33;18.92;;;8.30;99.90;;;;;;4974316;28;20109;-49
2022/11/30 06:13:18;;;;;;;40.75;20.73;;;8.20;99.90;;;;;;4973884;28;20087;-51
2022/11/30 06:15:44;;;;;;;39.20;20.50;;;8.20;99.90;;;;;;4974562;28;20023;-51
2022/11/30 06:18:11;;;;;;;42.53;20.33;;;8.30;99.90;;;;;;4974404;28;20029;-49
2022/11/30 06:20:37;;;;;;;37.55;19.65;;;8.30;99.90;;;;;;4974453;28;20019;-51
2022/11/30 06:23:03;;;;;;;41.50;21.83;;;8.30;99.90;;;;;;4973487;28;20021;-48
2022/11/30 06:25:29;;;;;;;33.35;18.90;;;8.20;99.90;;;;;;4974372;28;20038;-48
2022/11/30 06:27:54;;;;;;;52.13;21.63;;;8.30;99.90;;;;;;4974186;28;20395;-50
2022/11/30 06:30:20;;;;;;;48.90;21.42;;;8.20;99.90;;;;;;4974325;28;20369;-49
2022/11/30 06:32:47;;;;;;;49.13;21.58;;;8.20;99.90;;;;;;4973428;28;20038;-49
2022/11/30 06:35:13;;;;;;;45.97;22.02;;;8.20;99.90;;;;;;4973962;28;20030;-48
2022/11/30 06:37:38;;;;;;;42.67;21.90;;;8.10;99.90;;;;;;4973990;28;20497;-46
2022/11/30 06:40:05;;;;;;;41.92;21.30;;;8.10;99.90;;;;;;4973995;28;20039;-48
2022/11/30 06:42:31;;;;;;;48.95;21.83;;;8.10;99.90;;;;;;4973935;28;20023;-50
2022/11/30 06:44:57;;;;;;;40.15;19.80;;;8.10;99.90;;;;;;4974128;28;20127;-47
2022/11/30 06:47:23;;;;;;;44.50;21.02;;;8.10;99.90;;;;;;4972910;28;20105;-49
2022/11/30 06:49:48;;;;;;;46.28;21.73;;;8.10;99.90;;;;;;4974062;28;20035;-49
2022/11/30 06:52:14;;;;;;;38.85;21.52;;;8.20;99.90;;;;;;4985932;23;20066;-49
2022/11/30 06:54:39;;;;;;;50.28;23.00;;;8.20;99.90;;;;;;4982573;28;20043;-43
2022/11/30 06:57:05;;;;;;;44.33;21.10;;;8.20;99.90;;;;;;4981598;28;20034;-48
2022/11/30 06:59:32;;;;;;;52.67;22.05;;;8.20;99.90;;;;;;4981992;28;20078;-51
2022/11/30 07:01:58;;;;;;;47.50;22.60;;;8.20;99.90;;;;;;4979153;28;20090;-46
2022/11/30 07:04:24;;;;;;;47.22;22.48;;;8.30;99.90;;;;;;4959392;28;20479;-47
2022/11/30 07:06:49;;;;;;;52.40;23.02;;;8.30;99.90;;;;;;4961305;28;20034;-45
2022/11/30 07:09:15;;;;;;;40.90;20.77;;;8.30;99.90;;;;;;4961871;28;20027;-46
2022/11/30 07:11:41;;;;;;;45.00;21.38;;;8.20;99.90;;;;;;4960872;28;20027;-51
2022/11/30 07:14:06;;;;;;;43.95;20.20;;;8.20;99.90;;;;;;4963917;28;20026;-49
2022/11/30 07:16:32;;;;;;;38.47;20.85;;;8.20;99.90;;;;;;4968198;28;20087;-46
2022/11/30 07:18:58;;;;;;;40.47;22.55;;;8.20;99.90;;;;;;4966743;28;20023;-47
2022/11/30 07:21:23;;;;;;;50.30;21.35;;;8.20;99.90;;;;;;4968582;28;20019;-43
2022/11/30 07:26:34;;;;;;;47.30;22.77;;;8.10;99.90;;;;;;4966721;29;20100;-49
2022/11/30 07:28:59;;;;;;;42.72;21.38;;;8.10;99.90;;;;;;4969383;29;20043;-48
2022/11/30 07:31:32;;;;;;;41.65;22.08;;;8.10;99.90;;;;;;4971238;28;20027;-42
2022/11/30 07:34:02;;;;;;;40.30;20.65;;;8.10;99.90;;;;;;4966939;28;20762;-47
2022/11/30 07:36:30;;;;;;;45.35;21.92;;;8.10;99.90;;;;;;4966052;28;20051;-42
2022/11/30 07:38:56;;;;;;;54.78;23.83;;;8.20;99.90;;;;;;4969099;28;20391;-43
2022/11/30 07:41:22;;;;;;;44.83;21.92;;;8.20;99.90;;;;;;4966922;28;20022;-48
2022/11/30 07:43:47;;;;;;;53.95;24.02;;;8.20;99.90;;;;;;4963716;28;20107;-44
2022/11/30 07:46:14;;;;;;;43.13;21.27;;;8.20;99.90;;;;;;4958372;28;20031;-51
2022/11/30 07:48:40;;;;;;;46.33;21.90;;;8.30;99.90;;;;;;4953940;29;20114;-46
2022/11/30 07:51:13;;;;;;;54.10;21.90;;;8.30;99.90;;;;;;4955028;28;20043;-50
2022/11/30 07:53:38;;;;;;;41.08;21.42;;;8.30;99.90;;;;;;4966380;28;20023;-47
2022/11/30 07:56:10;;;;;;;45.17;23.17;;;8.30;99.90;;;;;;4969855;28;20031;-45
2022/11/30 07:58:36;;;;;;;44.10;21.38;;;8.30;99.90;;;;;;4970801;28;20043;-44
2022/11/30 08:01:06;;;;;;;51.15;22.45;;;8.30;99.90;;;;;;4971493;28;20023;-43
2022/11/30 08:03:32;;;;;;;43.28;21.27;;;8.40;99.90;;;;;;4971614;28;20043;-44
2022/11/30 08:06:00;;;;;;;40.15;20.77;;;8.40;99.90;;;;;;4969087;28;20468;-49
2022/11/30 08:08:29;;;;;;;40.90;21.15;;;8.40;99.90;;;;;;4967314;28;20047;-45
2022/11/30 08:10:58;;;;;;;53.55;22.77;;;8.50;99.90;;;;;;4968156;28;20084;-43
2022/11/30 08:13:24;;;;;;;39.85;23.05;;;8.50;99.90;;;;;;4967969;28;20023;-47
2022/11/30 08:15:50;;;;;;;39.70;21.98;;;8.60;99.90;;;;;;4968355;28;20077;-51
2022/11/30 08:18:16;;;;;;;42.58;22.40;;;8.60;99.90;;;;;;4974114;28;20027;-49
2022/11/30 08:20:42;;;;;;;46.75;23.38;;;8.70;99.90;;;;;;4975396;28;20027;-41
2022/11/30 08:23:08;;;;;;;43.38;23.00;;;8.70;99.90;;;;;;4972143;28;20595;-44
2022/11/30 08:25:34;;;;;;;45.10;22.45;;;8.70;99.90;;;;;;4969097;28;20055;-43
2022/11/30 08:27:59;;;;;;;37.67;20.42;;;8.70;99.90;;;;;;4976097;28;20042;-45
2022/11/30 08:30:25;;;;;;;34.92;20.90;;;8.70;99.90;;;;;;4976095;28;20018;-47
2022/11/30 08:32:51;;;;;;;36.92;19.88;;;8.70;99.90;;;;;;4978488;28;20033;-50
2022/11/30 08:35:17;;;;;;;33.72;19.38;;;8.60;99.90;;;;;;4986109;28;20099;-45
2022/11/30 08:37:43;;;;;;;29.10;17.45;;;8.50;99.90;;;;;;4970331;28;20027;-52
2022/11/30 08:40:09;;;;;;;35.70;17.35;;;8.50;99.90;;;;;;4972856;28;20031;-41
2022/11/30 08:42:35;;;;;;;36.45;17.00;;;8.40;99.90;;;;;;4972953;28;20110;-45
2022/11/30 08:45:01;;;;;;;36.40;18.70;;;8.40;99.90;;;;;;4965240;28;20031;-46
2022/11/30 08:47:29;;;;;;;41.35;19.20;;;8.40;99.90;;;;;;4958293;28;20023;-50
2022/11/30 08:49:56;;;;;;;40.03;18.85;;;8.30;99.90;;;;;;4978899;28;20523;-42
2022/11/30 08:52:22;;;;;;;33.13;17.90;;;8.40;99.90;;;;;;4969879;28;20027;-43
2022/11/30 08:54:48;;;;;;;39.30;17.90;;;8.30;99.90;;;;;;4971393;28;20046;-47
2022/11/30 08:57:18;;;;;;;31.10;18.50;;;8.40;99.90;;;;;;4976421;28;20501;-41
2022/11/30 08:59:53;;;;;;;32.13;18.38;;;8.40;99.90;;;;;;4978026;28;20015;-49
2022/11/30 09:02:19;;;;;;;31.52;16.88;;;8.30;99.90;;;;;;4968822;28;20106;-51
2022/11/30 09:04:47;;;;;;;33.67;17.83;;;8.30;99.90;;;;;;4956272;28;20114;-55
2022/11/30 09:07:13;;;;;;;34.17;17.95;;;8.40;99.90;;;;;;4957451;28;20059;-47
2022/11/30 09:09:39;;;;;;;31.40;18.63;;;8.40;99.90;;;;;;4973763;28;20035;-42
2022/11/30 09:12:05;;;;;;;30.08;17.02;;;8.30;99.90;;;;;;4970229;28;20035;-44
2022/11/30 09:14:31;;;;;;;36.15;17.60;;;8.30;99.90;;;;;;4969091;28;20062;-44
2022/11/30 09:16:57;;;;;;;34.20;17.60;;;8.40;99.90;;;;;;4977730;28;20023;-47
2022/11/30 09:19:24;;;;;;;32.22;18.05;;;8.40;99.90;;;;;;4978716;28;20035;-43
2022/11/30 09:21:49;;;;;;;27.85;17.30;;;8.40;99.90;;;;;;4974510;28;20452;-45
2022/11/30 09:24:16;;;;;;;30.42;16.50;;;8.60;99.90;;;;;;4977546;28;20039;-43
2022/11/30 09:26:41;;;;;;;27.20;16.52;;;8.50;99.90;;;;;;4978155;28;20030;-47
2022/11/30 09:29:07;;;;;;;32.72;15.88;;;8.50;99.90;;;;;;4977629;28;20023;-43
2022/11/30 09:31:32;;;;;;;30.95;15.77;;;8.50;99.90;;;;;;4978917;28;20038;-45
2022/11/30 09:33:58;;;;;;;28.60;17.70;;;8.60;99.90;;;;;;4992240;28;20059;-44
2022/11/30 09:36:26;;;;;;;36.33;18.15;;;8.60;99.90;;;;;;4976054;28;20023;-42
2022/11/30 09:38:53;;;;;;;32.30;17.85;;;8.60;99.90;;;;;;4977281;28;20109;-40
2022/11/30 09:41:46;;;;;;;33.88;18.02;;;8.60;99.90;;;;;;4973951;28;20030;-43
2022/11/30 09:44:18;;;;;;;34.10;19.02;;;8.60;99.90;;;;;;4975667;28;20034;-44
2022/11/30 09:47:08;;;;;;;33.90;17.08;;;8.60;99.90;;;;;;4976634;28;20023;-42
2022/11/30 09:49:43;;;;;;;28.83;16.55;;;8.50;99.90;;;;;;4975768;28;20020;-41
2022/11/30 09:52:21;;;;;;;39.97;16.08;;;8.50;99.90;;;;;;4975006;28;20020;-42
2022/11/30 09:54:47;;;;;;;35.58;18.63;;;8.50;99.90;;;;;;4966947;28;20039;-41
2022/11/30 09:57:37;;;;;;;35.33;18.63;;;8.40;99.90;;;;;;4965984;28;20031;-50
2022/11/30 10:00:11;;;;;;;38.30;18.38;;;8.40;99.90;;;;;;4954461;28;20028;-50
2022/11/30 10:02:37;;;;;;;38.33;20.48;;;8.40;99.90;;;;;;4936114;29;20503;-46
2022/11/30 10:05:19;;;;;;;37.38;19.02;;;8.30;99.90;;;;;;4941933;29;20035;-52
2022/11/30 10:08:03;;;;;;;37.30;19.50;;;8.30;99.90;;;;;;4937751;29;20023;-47
2022/11/30 10:10:55;;;;;;;38.45;20.75;;;8.30;99.90;;;;;;4971043;28;20042;-45
2022/11/30 10:13:27;;;;;;;39.85;21.35;;;8.30;99.90;;;;;;4954000;28;20087;-44
2022/11/30 10:16:26;;;;;;;43.75;21.35;;;8.40;99.90;;;;;;4972625;28;20035;-42
2022/11/30 10:19:07;;;;;;;41.90;20.40;;;8.40;99.90;;;;;;4975110;28;20032;-38
2022/11/30 10:21:46;;;;;;;39.63;22.25;;;8.40;99.90;;;;;;4973118;28;20054;-46
2022/11/30 10:24:27;;;;;;;37.03;20.35;;;8.40;99.90;;;;;;4993491;28;20031;-47
2022/11/30 10:26:56;;;;;;;37.20;21.85;;;8.40;99.90;;;;;;4995751;28;20030;-46
2022/11/30 10:29:27;;;;;;;40.55;22.40;;;8.40;99.90;;;;;;4995465;28;20027;-39
2022/11/30 10:31:57;;;;;;;41.78;21.58;;;8.40;99.90;;;;;;4955704;29;20015;-47
2022/11/30 10:34:33;;;;;;;40.20;21.17;;;8.40;99.90;;;;;;4955308;29;20055;-41
2022/11/30 10:37:09;;;;;;;36.13;21.42;;;8.40;99.90;;;;;;4956461;29;20027;-42
2022/11/30 10:39:54;;;;;;;43.40;22.77;;;8.40;99.90;;;;;;4955644;29;20047;-47
2022/11/30 10:42:54;;;;;;;39.30;20.58;;;8.40;99.90;;;;;;4993745;28;20034;-44
2022/11/30 10:45:21;;;;;;;33.40;20.58;;;8.40;99.90;;;;;;4991836;28;20050;-42
2022/11/30 10:48:06;;;;;;;35.03;19.55;;;8.50;99.90;;;;;;4974862;28;20066;-46
2022/11/30 10:50:32;;;;;;;36.90;20.80;;;8.50;99.90;;;;;;4970873;28;20023;-46
2022/11/30 10:52:59;;;;;;;37.10;20.02;;;8.60;99.90;;;;;;4981117;28;20038;-46
2022/11/30 10:55:51;;;;;;;37.45;21.45;;;8.60;99.90;;;;;;4994360;28;20031;-42
2022/11/30 10:58:35;;;;;;;35.28;19.45;;;8.60;99.90;;;;;;4993469;28;20023;-43
2022/11/30 11:01:27;;;;;;;31.65;19.27;;;8.70;99.90;;;;;;4993230;28;20026;-44
2022/11/30 11:04:07;;;;;;;28.48;16.45;;;8.70;99.90;;;;;;5004665;28;20031;-45
2022/11/30 11:06:33;;;;;;;20.23;15.48;;;8.60;99.90;;;;;;4988929;28;20071;-43
2022/11/30 11:09:22;;;;;;;24.65;15.15;;;8.60;99.90;;;;;;4973893;28;20051;-41
2022/11/30 11:11:53;;;;;;;22.85;14.40;;;8.60;99.90;;;;;;4975909;28;20019;-41
2022/11/30 11:14:25;;;;;;;21.30;14.77;;;8.60;99.90;;;;;;4974739;28;20038;-44
2022/11/30 11:16:57;;;;;;;23.42;16.05;;;8.70;99.90;;;;;;4972738;28;20390;-44
2022/11/30 11:19:53;;;;;;;23.60;15.77;;;8.70;99.90;;;;;;4970898;28;20027;-39
2022/11/30 11:22:22;;;;;;;22.88;15.60;;;8.70;99.90;;;;;;4962435;28;20078;-46
2022/11/30 11:24:50;;;;;;;22.55;15.77;;;8.70;99.90;;;;;;4973200;28;20519;-49
2022/11/30 11:27:27;;;;;;;22.55;15.70;;;8.70;99.90;;;;;;4972799;28;20024;-43
2022/11/30 11:30:08;;;;;;;23.70;17.42;;;8.70;99.90;;;;;;4973948;28;20087;-45
2022/11/30 11:32:34;;;;;;;25.05;16.77;;;8.60;99.90;;;;;;4972714;28;20063;-45
2022/11/30 11:35:00;;;;;;;24.20;17.88;;;8.60;99.90;;;;;;4973047;28;20038;-47
2022/11/30 11:37:32;;;;;;;22.45;17.05;;;8.50;99.90;;;;;;4973000;28;20023;-43
2022/11/30 11:40:07;;;;;;;24.58;18.05;;;8.60;99.90;;;;;;4970800;28;20027;-49
2022/11/30 11:42:40;;;;;;;27.50;19.27;;;8.50;99.90;;;;;;4966387;28;20038;-47
2022/11/30 11:45:18;;;;;;;24.98;17.38;;;8.60;99.90;;;;;;4981233;28;20030;-47
2022/11/30 11:47:45;;;;;;;26.85;18.40;;;8.60;99.90;;;;;;4966708;28;20030;-47
2022/11/30 11:50:31;;;;;;;26.27;18.48;;;8.60;99.90;;;;;;4982258;28;20035;-46
2022/11/30 11:53:21;;;;;;;26.90;16.77;;;8.70;99.90;;;;;;4957553;28;20131;-45
2022/11/30 11:55:51;;;;;;;21.92;16.17;;;8.70;99.90;;;;;;4953628;28;20066;-48
2022/11/30 11:58:26;;;;;;;43.33;29.98;;;8.60;99.90;;;;;;4956141;28;20031;-43
2022/11/30 12:00:54;;;;;;;111.85;72.28;;;8.60;99.90;;;;;;4960394;28;20062;-42
2022/11/30 12:03:30;;;;;;;98.20;55.60;;;8.60;99.90;;;;;;4954388;28;20521;-45
2022/11/30 12:06:02;;;;;;;30.15;20.50;;;8.70;99.90;;;;;;4973027;28;20058;-47
2022/11/30 12:08:46;;;;;;;28.30;20.05;;;8.70;99.90;;;;;;4972842;28;20026;-46
2022/11/30 12:11:20;;;;;;;28.20;18.55;;;8.70;99.90;;;;;;4972565;28;20018;-47
2022/11/30 12:13:46;;;;;;;25.10;17.80;;;8.80;99.90;;;;;;4953286;28;20027;-47
2022/11/30 12:16:14;;;;;;;26.05;18.08;;;8.70;99.90;;;;;;4953069;28;20027;-50
2022/11/30 12:19:01;;;;;;;26.73;18.63;;;8.80;99.90;;;;;;4953162;28;20023;-48
2022/11/30 12:22:05;;;;;;;24.80;18.13;;;8.70;99.90;;;;;;4953969;28;20492;-44
2022/11/30 12:25:05;;;;;;;26.85;18.48;;;8.70;99.90;;;;;;4936671;29;20046;-48
2022/11/30 12:27:42;;;;;;;25.38;16.50;;;8.70;99.90;;;;;;4932771;29;20094;-46
2022/11/30 12:30:25;;;;;;;26.73;18.95;;;8.70;99.90;;;;;;4949448;28;20047;-47
2022/11/30 12:33:11;;;;;;;31.50;19.65;;;8.70;99.90;;;;;;4952531;28;20498;-49
2022/11/30 12:35:42;;;;;;;26.15;17.30;;;8.80;99.90;;;;;;4952464;28;20114;-51
2022/11/30 12:38:38;;;;;;;25.95;18.52;;;8.70;99.90;;;;;;4935051;28;20028;-47
2022/11/30 12:41:25;;;;;;;27.70;19.13;;;8.70;99.90;;;;;;4943627;29;20028;-44
2022/11/30 12:44:05;;;;;;;28.20;19.45;;;8.80;99.90;;;;;;4951657;28;20031;-47
2022/11/30 12:46:53;;;;;;;26.02;17.42;;;8.80;99.90;;;;;;4952667;28;20035;-45
2022/11/30 12:49:34;;;;;;;27.88;18.27;;;8.80;99.90;;;;;;4953108;28;20499;-47
2022/11/30 12:52:03;;;;;;;27.30;17.42;;;8.80;99.90;;;;;;4950950;28;20052;-45